createdAt,value
2023-01-21T00:00:03.903Z,2.59
2023-01-21T00:01:08.037Z,2.60
2023-01-21T00:02:12.394Z,2.62
2023-01-21T00:03:16.425Z,2.64
2023-01-21T00:04:20.532Z,2.63
2023-01-21T00:05:24.732Z,2.60
2023-01-21T00:06:28.791Z,2.56
2023-01-21T00:07:33.085Z,2.52
2023-01-21T00:08:37.183Z,2.50
2023-01-21T00:09:42.242Z,2.48
2023-01-21T00:10:46.082Z,2.46
2023-01-21T00:11:50.205Z,2.43
2023-01-21T00:12:54.519Z,2.40
2023-01-21T00:13:58.645Z,2.39
2023-01-21T00:15:02.953Z,2.40
2023-01-21T00:16:13.406Z,2.43
2023-01-21T00:17:15.964Z,2.45
2023-01-21T00:18:20.118Z,2.47
2023-01-21T00:19:24.248Z,2.50
2023-01-21T00:20:42.489Z,2.52
2023-01-21T00:21:45.319Z,2.54
2023-01-21T00:22:49.401Z,2.56
2023-01-21T00:23:53.596Z,2.54
2023-01-21T00:24:57.853Z,2.53
2023-01-21T00:26:01.984Z,2.52
2023-01-21T00:27:06.039Z,2.53
2023-01-21T00:28:10.278Z,2.54
2023-01-21T00:29:14.516Z,2.56
2023-01-21T00:30:19.022Z,2.56
2023-01-21T00:31:22.947Z,2.56
2023-01-21T00:32:26.957Z,2.56
2023-01-21T00:33:31.121Z,2.58
2023-01-21T00:34:36.166Z,2.59
2023-01-21T00:35:39.993Z,2.60
2023-01-21T00:36:44.191Z,2.61
2023-01-21T00:37:48.382Z,2.61
2023-01-21T00:38:52.599Z,2.62
2023-01-21T00:39:56.758Z,2.63
2023-01-21T00:41:00.863Z,2.64
2023-01-21T00:42:05.110Z,2.64
2023-01-21T00:43:09.198Z,2.64
2023-01-21T00:44:13.391Z,2.63
2023-01-21T00:45:17.496Z,2.64
2023-01-21T00:46:21.770Z,2.63
2023-01-21T00:47:25.879Z,2.62
2023-01-21T00:48:29.911Z,2.61
2023-01-21T00:49:34.017Z,2.59
2023-01-21T00:50:38.285Z,2.55
2023-01-21T00:51:42.420Z,2.53
2023-01-21T00:52:46.628Z,2.53
2023-01-21T00:53:50.760Z,2.54
2023-01-21T00:54:55.011Z,2.55
2023-01-21T00:55:59.128Z,2.55
2023-01-21T00:57:03.183Z,2.54
2023-01-21T00:58:07.314Z,2.51
2023-01-21T00:59:11.536Z,2.49
2023-01-21T01:00:15.984Z,2.47
2023-01-21T01:01:19.992Z,2.48
2023-01-21T01:02:24.153Z,2.49
2023-01-21T01:03:28.189Z,2.50
2023-01-21T01:04:32.341Z,2.52
2023-01-21T01:05:36.455Z,2.54
2023-01-21T01:06:40.671Z,2.54
2023-01-21T01:07:44.841Z,2.54
2023-01-21T01:08:49.047Z,2.54
2023-01-21T01:09:53.120Z,2.54
2023-01-21T01:10:57.158Z,2.55
2023-01-21T01:12:01.439Z,2.56
2023-01-21T01:13:05.606Z,2.58
2023-01-21T01:14:09.807Z,2.59
2023-01-21T01:15:13.876Z,2.60
2023-01-21T01:16:18.084Z,2.61
2023-01-21T01:17:22.214Z,2.63
2023-01-21T01:18:26.361Z,2.65
2023-01-21T01:19:36.674Z,2.66
2023-01-21T01:20:39.454Z,2.68
2023-01-21T01:21:43.639Z,2.67
2023-01-21T01:22:47.759Z,2.65
2023-01-21T01:23:51.962Z,2.65
2023-01-21T01:25:02.006Z,2.64
2023-01-21T01:26:04.862Z,2.64
2023-01-21T01:27:08.861Z,2.64
2023-01-21T01:28:13.185Z,2.66
2023-01-21T01:29:17.273Z,2.67
2023-01-21T01:30:21.490Z,2.69
2023-01-21T01:31:25.772Z,2.70
2023-01-21T01:32:29.892Z,2.72
2023-01-21T01:33:34.026Z,2.72
2023-01-21T01:34:38.168Z,2.72
2023-01-21T01:35:42.296Z,2.72
2023-01-21T01:36:46.459Z,2.69
2023-01-21T01:37:50.618Z,2.67
2023-01-21T01:38:54.698Z,2.66
2023-01-21T01:39:58.985Z,2.66
2023-01-21T01:41:03.150Z,2.66
2023-01-21T01:42:07.284Z,2.66
2023-01-21T01:43:11.532Z,2.66
2023-01-21T01:44:15.740Z,2.67
2023-01-21T01:45:19.800Z,2.68
2023-01-21T01:46:24.111Z,2.67
2023-01-21T01:47:28.182Z,2.69
2023-01-21T01:48:32.384Z,2.70
2023-01-21T01:49:36.579Z,2.72
2023-01-21T01:50:40.596Z,2.71
2023-01-21T01:51:44.945Z,2.71
2023-01-21T01:52:49.029Z,2.72
2023-01-21T01:53:59.390Z,2.73
2023-01-21T01:55:02.040Z,2.74
2023-01-21T01:56:06.196Z,2.72
2023-01-21T01:57:10.484Z,2.69
2023-01-21T01:58:14.498Z,2.67
2023-01-21T01:59:18.721Z,2.66
2023-01-21T02:00:22.956Z,2.67
2023-01-21T02:01:27.100Z,2.67
2023-01-21T02:02:31.221Z,2.65
2023-01-21T02:03:35.489Z,2.61
2023-01-21T02:04:39.608Z,2.57
2023-01-21T02:05:43.844Z,2.57
2023-01-21T02:06:48.040Z,2.58
2023-01-21T02:07:52.164Z,2.59
2023-01-21T02:08:56.331Z,2.58
2023-01-21T02:10:00.522Z,2.55
2023-01-21T02:11:07.759Z,2.52
2023-01-21T02:12:10.905Z,2.50
2023-01-21T02:13:15.100Z,2.47
2023-01-21T02:14:19.294Z,2.46
2023-01-21T02:15:23.467Z,2.45
2023-01-21T02:16:27.684Z,2.44
2023-01-21T02:17:31.834Z,2.43
2023-01-21T02:18:36.024Z,2.41
2023-01-21T02:19:40.383Z,2.41
2023-01-21T02:20:45.313Z,2.41
2023-01-21T02:21:49.069Z,2.42
2023-01-21T02:22:53.351Z,2.43
2023-01-21T02:23:57.287Z,2.45
2023-01-21T02:25:01.566Z,2.46
2023-01-21T02:26:19.706Z,2.48
2023-01-21T02:27:30.122Z,2.51
2023-01-21T02:28:26.665Z,2.53
2023-01-21T02:29:30.954Z,2.53
2023-01-21T02:30:35.109Z,2.53
2023-01-21T02:31:39.301Z,2.52
2023-01-21T02:32:43.435Z,2.51
2023-01-21T02:33:47.658Z,2.51
2023-01-21T02:34:51.796Z,2.53
2023-01-21T02:35:55.977Z,2.55
2023-01-21T02:37:00.140Z,2.55
2023-01-21T02:38:04.265Z,2.54
2023-01-21T02:39:08.447Z,2.54
2023-01-21T02:40:12.566Z,2.54
2023-01-21T02:41:16.682Z,2.54
2023-01-21T02:42:20.954Z,2.51
2023-01-21T02:43:25.307Z,2.50
2023-01-21T02:44:29.401Z,2.50
2023-01-21T02:45:33.441Z,2.49
2023-01-21T02:46:37.749Z,2.48
2023-01-21T02:47:41.876Z,2.46
2023-01-21T02:48:46.045Z,2.45
2023-01-21T02:49:50.376Z,2.44
2023-01-21T02:50:54.497Z,2.44
2023-01-21T02:51:58.460Z,2.43
2023-01-21T02:53:02.660Z,2.42
2023-01-21T02:54:06.683Z,2.40
2023-01-21T02:55:10.925Z,2.40
2023-01-21T02:56:15.104Z,2.41
2023-01-21T02:57:19.495Z,2.42
2023-01-21T02:58:26.610Z,2.41
2023-01-21T02:59:29.801Z,2.40
2023-01-21T03:00:34.003Z,2.39
2023-01-21T03:01:38.174Z,2.40
2023-01-21T03:02:42.324Z,2.39
2023-01-21T03:03:46.440Z,2.38
2023-01-21T03:04:50.664Z,2.37
2023-01-21T03:05:54.727Z,2.36
2023-01-21T03:06:58.949Z,2.36
2023-01-21T03:08:03.163Z,2.36
2023-01-21T03:09:07.349Z,2.37
2023-01-21T03:10:11.443Z,2.37
2023-01-21T03:11:15.522Z,2.37
2023-01-21T03:12:19.606Z,2.38
2023-01-21T03:13:23.842Z,2.38
2023-01-21T03:14:28.046Z,2.36
2023-01-21T03:15:32.188Z,2.34
2023-01-21T03:16:36.484Z,2.32
2023-01-21T03:19:08.047Z,2.22
2023-01-21T03:20:11.939Z,2.19
2023-01-21T03:21:16.261Z,2.15
2023-01-21T03:22:20.200Z,2.11
2023-01-21T03:23:24.379Z,2.09
2023-01-21T03:24:28.566Z,2.07
2023-01-21T03:25:32.820Z,2.07
2023-01-21T03:26:37.099Z,2.06
2023-01-21T03:27:41.293Z,2.06
2023-01-21T03:28:45.396Z,2.06
2023-01-21T03:29:49.744Z,2.06
2023-01-21T03:30:53.746Z,2.06
2023-01-21T03:31:57.956Z,2.04
2023-01-21T03:33:02.059Z,2.04
2023-01-21T03:34:06.250Z,2.02
2023-01-21T03:35:10.391Z,2.02
2023-01-21T03:36:14.549Z,2.02
2023-01-21T03:37:18.777Z,2.03
2023-01-21T03:38:22.938Z,2.04
2023-01-21T03:39:27.053Z,2.05
2023-01-21T03:40:31.100Z,2.05
2023-01-21T03:41:35.322Z,2.05
2023-01-21T03:42:39.592Z,2.05
2023-01-21T03:43:43.544Z,2.07
2023-01-21T03:44:47.659Z,2.09
2023-01-21T03:45:51.966Z,2.12
2023-01-21T03:46:55.997Z,2.13
2023-01-21T03:48:00.161Z,2.13
2023-01-21T03:49:04.305Z,2.13
2023-01-21T03:50:08.340Z,2.10
2023-01-21T03:51:12.697Z,2.06
2023-01-21T03:52:16.816Z,2.03
2023-01-21T03:53:20.974Z,2.01
2023-01-21T03:54:25.092Z,2.00
2023-01-21T03:55:29.284Z,1.99
2023-01-21T03:56:33.422Z,1.98
2023-01-21T03:57:37.447Z,1.98
2023-01-21T03:58:41.745Z,2.01
2023-01-21T03:59:46.006Z,2.04
2023-01-21T04:00:50.257Z,2.04
2023-01-21T04:01:54.286Z,2.04
2023-01-21T04:02:58.379Z,2.06
2023-01-21T04:04:02.601Z,2.06
2023-01-21T04:05:06.662Z,2.05
2023-01-21T04:06:10.873Z,2.07
2023-01-21T04:07:14.903Z,2.08
2023-01-21T04:08:19.007Z,2.07
2023-01-21T04:09:23.201Z,2.06
2023-01-21T04:10:27.340Z,2.05
2023-01-21T04:11:31.668Z,2.05
2023-01-21T04:12:35.719Z,2.07
2023-01-21T04:13:39.897Z,2.08
2023-01-21T04:14:44.115Z,2.07
2023-01-21T04:15:48.158Z,2.05
2023-01-21T04:16:52.383Z,2.02
2023-01-21T04:17:56.675Z,1.99
2023-01-21T04:19:00.836Z,1.96
2023-01-21T04:20:04.986Z,1.96
2023-01-21T04:21:09.054Z,1.95
2023-01-21T04:22:13.270Z,1.94
2023-01-21T04:23:17.435Z,1.92
2023-01-21T04:24:21.568Z,1.90
2023-01-21T04:25:25.707Z,1.87
2023-01-21T04:26:29.919Z,1.87
2023-01-21T04:27:34.056Z,1.89
2023-01-21T04:28:38.256Z,1.92
2023-01-21T04:29:42.380Z,1.95
2023-01-21T04:30:46.612Z,1.96
2023-01-21T04:31:50.677Z,1.95
2023-01-21T04:32:54.840Z,1.93
2023-01-21T04:33:59.069Z,1.91
2023-01-21T04:35:03.280Z,1.90
2023-01-21T04:36:07.388Z,1.92
2023-01-21T04:37:11.613Z,1.93
2023-01-21T04:38:15.769Z,1.95
2023-01-21T04:39:19.906Z,1.96
2023-01-21T04:40:24.149Z,1.99
2023-01-21T04:41:28.336Z,2.01
2023-01-21T04:42:32.348Z,2.02
2023-01-21T04:43:36.589Z,2.03
2023-01-21T04:44:40.633Z,2.03
2023-01-21T04:45:44.816Z,2.04
2023-01-21T04:46:48.894Z,2.04
2023-01-21T04:47:53.117Z,2.03
2023-01-21T04:48:57.192Z,2.03
2023-01-21T04:50:01.413Z,2.03
2023-01-21T04:51:05.646Z,2.04
2023-01-21T04:52:09.652Z,2.04
2023-01-21T04:53:13.843Z,2.01
2023-01-21T04:54:17.899Z,1.99
2023-01-21T04:55:23.050Z,1.98
2023-01-21T04:56:26.225Z,1.97
2023-01-21T04:57:30.484Z,1.95
2023-01-21T04:58:34.619Z,1.92
2023-01-21T04:59:38.751Z,1.89
2023-01-21T05:00:42.925Z,1.88
2023-01-21T05:01:47.062Z,1.87
2023-01-21T05:02:51.227Z,1.87
2023-01-21T05:03:55.459Z,1.89
2023-01-21T05:04:59.697Z,1.91
2023-01-21T05:06:03.900Z,1.93
2023-01-21T05:07:07.978Z,1.95
2023-01-21T05:08:12.030Z,1.95
2023-01-21T05:09:16.250Z,1.96
2023-01-21T05:10:20.365Z,1.96
2023-01-21T05:11:24.618Z,1.96
2023-01-21T05:12:28.755Z,1.96
2023-01-21T05:13:32.856Z,1.97
2023-01-21T05:14:37.240Z,1.96
2023-01-21T05:15:41.307Z,1.96
2023-01-21T05:16:45.410Z,1.96
2023-01-21T05:17:52.534Z,1.96
2023-01-21T05:18:55.651Z,1.95
2023-01-21T05:19:59.852Z,1.94
2023-01-21T05:21:04.148Z,1.94
2023-01-21T05:22:08.226Z,1.93
2023-01-21T05:23:12.322Z,1.92
2023-01-21T05:24:16.502Z,1.91
2023-01-21T05:25:20.622Z,1.90
2023-01-21T05:26:24.787Z,1.89
2023-01-21T05:27:28.962Z,1.88
2023-01-21T05:28:32.987Z,1.87
2023-01-21T05:29:37.291Z,1.86
2023-01-21T05:30:43.903Z,1.86
2023-01-21T05:31:45.726Z,1.87
2023-01-21T05:32:49.692Z,1.88
2023-01-21T05:33:53.836Z,1.88
2023-01-21T05:34:57.991Z,1.89
2023-01-21T05:36:02.168Z,1.92
2023-01-21T05:37:06.310Z,1.93
2023-01-21T05:38:10.474Z,1.93
2023-01-21T05:39:14.570Z,1.94
2023-01-21T05:40:19.410Z,1.94
2023-01-21T05:41:23.029Z,1.95
2023-01-21T05:42:27.390Z,1.94
2023-01-21T05:43:31.424Z,1.94
2023-01-21T05:44:35.688Z,1.92
2023-01-21T05:45:39.877Z,1.90
2023-01-21T05:46:43.989Z,1.89
2023-01-21T05:47:48.137Z,1.89
2023-01-21T05:48:52.441Z,1.89
2023-01-21T05:49:56.538Z,1.88
2023-01-21T05:51:00.620Z,1.88
2023-01-21T05:52:04.752Z,1.89
2023-01-21T05:53:08.843Z,1.89
2023-01-21T05:54:13.073Z,1.88
2023-01-21T05:55:17.196Z,1.88
2023-01-21T05:56:21.429Z,1.88
2023-01-21T05:57:25.540Z,1.87
2023-01-21T05:58:29.740Z,1.87
2023-01-21T05:59:33.986Z,1.86
2023-01-21T06:00:38.214Z,1.86
2023-01-21T06:01:42.411Z,1.87
2023-01-21T06:02:46.612Z,1.87
2023-01-21T06:03:50.820Z,1.87
2023-01-21T06:04:57.816Z,1.87
2023-01-21T06:06:01.020Z,1.87
2023-01-21T06:07:06.041Z,1.87
2023-01-21T06:08:09.876Z,1.86
2023-01-21T06:09:14.012Z,1.86
2023-01-21T06:10:18.584Z,1.85
2023-01-21T06:11:22.271Z,1.85
2023-01-21T06:12:26.472Z,1.85
2023-01-21T06:13:30.550Z,1.84
2023-01-21T06:14:34.691Z,1.84
2023-01-21T06:15:38.915Z,1.84
2023-01-21T06:16:42.890Z,1.85
2023-01-21T06:17:47.574Z,1.86
2023-01-21T06:18:52.053Z,1.86
2023-01-21T06:19:55.823Z,1.87
2023-01-21T06:21:00.074Z,1.87
2023-01-21T06:22:04.059Z,1.87
2023-01-21T06:23:08.132Z,1.87
2023-01-21T06:24:12.349Z,1.87
2023-01-21T06:25:16.679Z,1.88
2023-01-21T06:26:20.640Z,1.88
2023-01-21T06:27:24.805Z,1.88
2023-01-21T06:28:28.950Z,1.88
2023-01-21T06:29:33.075Z,1.88
2023-01-21T06:30:37.436Z,1.88
2023-01-21T06:31:41.675Z,1.89
2023-01-21T06:32:45.571Z,1.89
2023-01-21T06:33:49.810Z,1.90
2023-01-21T06:34:54.150Z,1.90
2023-01-21T06:35:58.231Z,1.90
2023-01-21T06:37:02.437Z,1.91
2023-01-21T06:38:06.483Z,1.92
2023-01-21T06:39:10.511Z,1.92
2023-01-21T06:40:14.970Z,1.92
2023-01-21T06:41:18.952Z,1.93
2023-01-21T06:42:23.257Z,1.94
2023-01-21T06:43:27.212Z,1.95
2023-01-21T06:44:31.407Z,1.96
2023-01-21T06:45:35.544Z,1.97
2023-01-21T06:46:43.450Z,1.97
2023-01-21T06:47:43.801Z,1.98
2023-01-21T06:48:48.151Z,1.98
2023-01-21T06:49:52.247Z,1.98
2023-01-21T06:50:56.444Z,1.98
2023-01-21T06:53:27.783Z,1.98
2023-01-21T06:54:31.798Z,1.98
2023-01-21T06:55:35.994Z,1.97
2023-01-21T06:56:40.005Z,1.96
2023-01-21T06:57:44.117Z,1.96
2023-01-21T06:58:48.236Z,1.95
2023-01-21T06:59:52.384Z,1.95
2023-01-21T07:00:56.613Z,1.94
2023-01-21T07:02:00.902Z,1.94
2023-01-21T07:03:04.854Z,1.94
2023-01-21T07:04:09.106Z,1.95
2023-01-21T07:05:13.148Z,1.95
2023-01-21T07:06:17.216Z,1.95
2023-01-21T07:07:21.300Z,1.95
2023-01-21T07:08:25.560Z,1.94
2023-01-21T07:09:29.778Z,1.94
2023-01-21T07:10:33.823Z,1.93
2023-01-21T07:11:37.909Z,1.93
2023-01-21T07:12:42.146Z,1.93
2023-01-21T07:13:46.221Z,1.93
2023-01-21T07:14:50.398Z,1.93
2023-01-21T07:15:54.578Z,1.93
2023-01-21T07:16:58.741Z,1.93
2023-01-21T07:18:02.980Z,1.93
2023-01-21T07:19:06.973Z,1.92
2023-01-21T07:20:11.139Z,1.93
2023-01-21T07:21:15.271Z,1.92
2023-01-21T07:22:19.485Z,1.92
2023-01-21T07:23:23.626Z,1.91
2023-01-21T07:24:27.828Z,1.90
2023-01-21T07:25:31.899Z,1.90
2023-01-21T07:26:36.038Z,1.88
2023-01-21T07:27:40.364Z,1.88
2023-01-21T07:28:44.357Z,1.87
2023-01-21T07:29:49.433Z,1.87
2023-01-21T07:30:53.090Z,1.86
2023-01-21T07:31:57.310Z,1.86
2023-01-21T07:33:01.274Z,1.86
2023-01-21T07:34:05.501Z,1.86
2023-01-21T07:35:09.633Z,1.86
2023-01-21T07:36:13.783Z,1.88
2023-01-21T07:37:17.914Z,1.88
2023-01-21T07:38:22.088Z,1.88
2023-01-21T07:39:26.144Z,1.89
2023-01-21T07:40:30.450Z,1.90
2023-01-21T07:41:34.615Z,1.90
2023-01-21T07:42:38.781Z,1.92
2023-01-21T07:43:42.811Z,1.93
2023-01-21T07:44:46.884Z,1.95
2023-01-21T07:45:51.147Z,1.97
2023-01-21T07:46:55.254Z,1.99
2023-01-21T07:47:59.376Z,2.01
2023-01-21T07:49:03.410Z,2.04
2023-01-21T07:50:07.753Z,2.06
2023-01-21T07:51:11.958Z,2.08
2023-01-21T07:52:15.955Z,2.10
2023-01-21T07:53:20.023Z,2.12
2023-01-21T07:54:24.179Z,2.14
2023-01-21T07:55:42.283Z,2.16
2023-01-21T07:56:45.079Z,2.18
2023-01-21T07:57:49.167Z,2.20
2023-01-21T07:58:53.295Z,2.23
2023-01-21T07:59:58.456Z,2.26
2023-01-21T08:01:02.238Z,2.29
2023-01-21T08:02:06.529Z,2.32
2023-01-21T08:03:10.374Z,2.35
2023-01-21T08:04:14.565Z,2.37
2023-01-21T08:05:19.066Z,2.39
2023-01-21T08:06:22.834Z,2.41
2023-01-21T08:07:27.031Z,2.43
2023-01-21T08:08:31.149Z,2.44
2023-01-21T08:09:35.495Z,2.46
2023-01-21T08:10:39.643Z,2.47
2023-01-21T08:11:57.989Z,2.50
2023-01-21T08:13:00.785Z,2.52
2023-01-21T08:14:04.962Z,2.55
2023-01-21T08:15:09.027Z,2.57
2023-01-21T08:16:13.217Z,2.60
2023-01-21T08:17:17.248Z,2.62
2023-01-21T08:18:21.483Z,2.65
2023-01-21T08:19:25.587Z,2.67
2023-01-21T08:20:29.799Z,2.69
2023-01-21T08:21:34.002Z,2.71
2023-01-21T08:22:38.279Z,2.73
2023-01-21T08:23:43.976Z,2.75
2023-01-21T08:24:47.600Z,2.77
2023-01-21T08:25:51.774Z,2.79
2023-01-21T08:26:55.914Z,2.81
2023-01-21T08:28:00.097Z,2.83
2023-01-21T08:29:04.204Z,2.85
2023-01-21T08:30:08.439Z,2.87
2023-01-21T08:31:12.668Z,2.89
2023-01-21T08:32:16.624Z,2.91
2023-01-21T08:33:20.873Z,2.92
2023-01-21T08:34:24.909Z,2.94
2023-01-21T08:35:28.985Z,2.96
2023-01-21T08:36:33.160Z,2.97
2023-01-21T08:37:37.281Z,2.99
2023-01-21T08:38:41.454Z,3.01
2023-01-21T08:39:45.655Z,3.03
2023-01-21T08:40:49.764Z,3.04
2023-01-21T08:41:53.957Z,3.05
2023-01-21T08:42:58.058Z,3.06
2023-01-21T08:44:05.254Z,3.08
2023-01-21T08:45:08.381Z,3.09
2023-01-21T08:46:12.600Z,3.10
2023-01-21T08:47:16.782Z,3.11
2023-01-21T08:48:21.085Z,3.12
2023-01-21T08:49:25.272Z,3.13
2023-01-21T08:50:29.349Z,3.14
2023-01-21T08:51:33.527Z,3.15
2023-01-21T08:52:37.576Z,3.16
2023-01-21T08:53:55.750Z,3.17
2023-01-21T08:54:58.457Z,3.18
2023-01-21T08:56:02.521Z,3.20
2023-01-21T08:57:06.697Z,3.22
2023-01-21T08:58:10.868Z,3.23
2023-01-21T08:59:15.014Z,3.25
2023-01-21T09:00:19.193Z,3.27
2023-01-21T09:01:23.277Z,3.29
2023-01-21T09:02:27.540Z,3.30
2023-01-21T09:03:31.636Z,3.31
2023-01-21T09:04:35.752Z,3.32
2023-01-21T09:05:40.005Z,3.33
2023-01-21T09:06:44.158Z,3.34
2023-01-21T09:07:49.225Z,3.35
2023-01-21T09:08:53.111Z,3.36
2023-01-21T09:09:57.253Z,3.36
2023-01-21T09:11:01.454Z,3.37
2023-01-21T09:12:05.719Z,3.38
2023-01-21T09:13:09.726Z,3.39
2023-01-21T09:14:13.958Z,3.41
2023-01-21T09:15:18.495Z,3.42
2023-01-21T09:16:22.337Z,3.44
2023-01-21T09:17:27.360Z,3.45
2023-01-21T09:18:31.259Z,3.46
2023-01-21T09:19:35.427Z,3.48
2023-01-21T09:20:39.493Z,3.49
2023-01-21T09:21:43.635Z,3.51
2023-01-21T09:22:47.807Z,3.53
2023-01-21T09:23:51.863Z,3.55
2023-01-21T09:24:56.012Z,3.56
2023-01-21T09:26:03.261Z,3.58
2023-01-21T09:27:06.484Z,3.61
2023-01-21T09:28:10.672Z,3.63
2023-01-21T09:29:14.834Z,3.65
2023-01-21T09:30:18.974Z,3.67
2023-01-21T09:31:23.299Z,3.69
2023-01-21T09:32:27.327Z,3.71
2023-01-21T09:33:45.562Z,3.73
2023-01-21T09:34:48.359Z,3.76
2023-01-21T09:35:58.498Z,3.80
2023-01-21T09:37:01.289Z,3.84
2023-01-21T09:38:05.317Z,3.88
2023-01-21T09:39:09.501Z,3.93
2023-01-21T09:40:13.765Z,3.97
2023-01-21T09:41:17.916Z,4.00
2023-01-21T09:42:22.081Z,4.04
2023-01-21T09:43:26.249Z,4.07
2023-01-21T09:44:30.412Z,4.09
2023-01-21T09:45:34.589Z,4.10
2023-01-21T09:46:38.821Z,4.09
2023-01-21T09:47:42.973Z,4.09
2023-01-21T09:48:47.174Z,4.10
2023-01-21T09:49:51.278Z,4.10
2023-01-21T09:50:55.508Z,4.10
2023-01-21T09:51:59.666Z,4.11
2023-01-21T09:53:03.798Z,4.12
2023-01-21T09:54:08.004Z,4.11
2023-01-21T09:55:12.188Z,4.11
2023-01-21T09:56:16.352Z,4.11
2023-01-21T09:57:20.683Z,4.11
2023-01-21T09:58:24.775Z,4.12
2023-01-21T09:59:28.962Z,4.11
2023-01-21T10:00:33.163Z,4.10
2023-01-21T10:01:37.304Z,4.09
2023-01-21T10:02:41.452Z,4.09
2023-01-21T10:03:45.654Z,4.08
2023-01-21T10:04:49.903Z,4.07
2023-01-21T10:05:54.952Z,4.07
2023-01-21T10:06:58.711Z,4.08
2023-01-21T10:08:02.921Z,4.09
2023-01-21T10:09:07.089Z,4.10
2023-01-21T10:10:11.238Z,4.12
2023-01-21T10:11:15.369Z,4.13
2023-01-21T10:12:19.563Z,4.14
2023-01-21T10:13:23.716Z,4.16
2023-01-21T10:14:27.859Z,4.19
2023-01-21T10:15:32.170Z,4.21
2023-01-21T10:16:36.276Z,4.23
2023-01-21T10:17:40.423Z,4.25
2023-01-21T10:18:44.619Z,4.27
2023-01-21T10:19:48.800Z,4.28
2023-01-21T10:20:53.036Z,4.30
2023-01-21T10:21:57.202Z,4.33
2023-01-21T10:23:04.366Z,4.36
2023-01-21T10:24:07.618Z,4.38
2023-01-21T10:25:11.868Z,4.41
2023-01-21T10:26:16.041Z,4.44
2023-01-21T10:27:20.301Z,4.46
2023-01-21T10:28:24.481Z,4.48
2023-01-21T10:29:28.664Z,4.49
2023-01-21T10:30:32.902Z,4.50
2023-01-21T10:31:37.152Z,4.52
2023-01-21T10:32:44.316Z,4.54
2023-01-21T10:33:47.605Z,4.56
2023-01-21T10:34:51.761Z,4.60
2023-01-21T10:35:55.911Z,4.65
2023-01-21T10:37:00.197Z,4.69
2023-01-21T10:38:04.385Z,4.73
2023-01-21T10:39:22.642Z,4.77
2023-01-21T10:40:26.364Z,4.82
2023-01-21T10:41:30.010Z,4.85
2023-01-21T10:42:34.453Z,4.88
2023-01-21T10:43:38.739Z,4.90
2023-01-21T10:44:42.865Z,4.91
2023-01-21T10:45:47.130Z,4.92
2023-01-21T10:46:51.288Z,4.91
2023-01-21T10:47:55.465Z,4.88
2023-01-21T10:49:02.741Z,4.85
2023-01-21T10:50:06.079Z,4.80
2023-01-21T10:51:10.239Z,4.79
2023-01-21T10:52:14.523Z,4.78
2023-01-21T10:53:18.674Z,4.77
2023-01-21T10:54:22.888Z,4.78
2023-01-21T10:55:27.097Z,4.79
2023-01-21T10:56:31.335Z,4.81
2023-01-21T10:57:35.460Z,4.82
2023-01-21T10:58:39.669Z,4.83
2023-01-21T10:59:43.884Z,4.85
2023-01-21T11:00:48.066Z,4.87
2023-01-21T11:01:52.304Z,4.90
2023-01-21T11:02:56.585Z,4.90
2023-01-21T11:04:00.828Z,4.90
2023-01-21T11:05:05.125Z,4.90
2023-01-21T11:06:09.375Z,4.89
2023-01-21T11:07:27.682Z,4.90
2023-01-21T11:08:30.593Z,4.91
2023-01-21T11:09:34.760Z,4.92
2023-01-21T11:10:38.926Z,4.93
2023-01-21T11:11:43.291Z,4.93
2023-01-21T11:12:47.504Z,4.93
2023-01-21T11:13:51.657Z,4.93
2023-01-21T11:14:55.846Z,4.92
2023-01-21T11:16:00.024Z,4.90
2023-01-21T11:17:05.123Z,4.88
2023-01-21T11:18:08.888Z,4.89
2023-01-21T11:19:13.115Z,4.89
2023-01-21T11:20:17.352Z,4.89
2023-01-21T11:21:21.731Z,4.89
2023-01-21T11:22:25.811Z,4.89
2023-01-21T11:23:30.075Z,4.88
2023-01-21T11:24:34.187Z,4.89
2023-01-21T11:25:38.405Z,4.88
2023-01-21T11:26:42.600Z,4.88
2023-01-21T11:27:46.782Z,4.87
2023-01-21T11:28:51.115Z,4.87
2023-01-21T11:29:55.243Z,4.85
2023-01-21T11:30:59.656Z,4.85
2023-01-21T11:32:03.754Z,4.85
2023-01-21T11:33:07.762Z,4.85
2023-01-21T11:34:12.063Z,4.84
2023-01-21T11:35:16.327Z,4.84
2023-01-21T11:36:20.420Z,4.84
2023-01-21T11:37:24.764Z,4.84
2023-01-21T11:38:28.913Z,4.82
2023-01-21T11:39:33.121Z,4.81
2023-01-21T11:40:37.324Z,4.80
2023-01-21T11:41:41.580Z,4.79
2023-01-21T11:42:45.708Z,4.79
2023-01-21T11:43:49.889Z,4.79
2023-01-21T11:44:54.258Z,4.79
2023-01-21T11:45:58.498Z,4.79
2023-01-21T11:47:02.699Z,4.79
2023-01-21T11:48:06.922Z,4.79
2023-01-21T11:49:11.259Z,4.80
2023-01-21T11:50:15.747Z,4.82
2023-01-21T11:51:19.579Z,4.83
2023-01-21T11:52:23.751Z,4.85
2023-01-21T11:53:27.912Z,4.87
2023-01-21T11:54:35.139Z,4.89
2023-01-21T11:55:38.438Z,4.88
2023-01-21T11:56:42.647Z,4.86
2023-01-21T11:57:46.794Z,4.85
2023-01-21T11:58:50.973Z,4.86
2023-01-21T11:59:55.411Z,4.88
2023-01-21T12:00:59.509Z,4.89
2023-01-21T12:02:03.839Z,4.92
2023-01-21T12:03:07.995Z,4.94
2023-01-21T12:04:12.278Z,4.95
2023-01-21T12:05:16.475Z,4.97
2023-01-21T12:06:20.794Z,4.98
2023-01-21T12:07:24.956Z,5.00
2023-01-21T12:08:29.148Z,5.00
2023-01-21T12:09:33.396Z,5.00
2023-01-21T12:10:37.693Z,4.99
2023-01-21T12:11:41.827Z,4.99
2023-01-21T12:12:45.983Z,4.99
2023-01-21T12:13:50.212Z,5.01
2023-01-21T12:14:54.384Z,5.01
2023-01-21T12:16:12.780Z,5.02
2023-01-21T12:17:15.601Z,5.02
2023-01-21T12:18:19.660Z,5.00
2023-01-21T12:19:23.916Z,4.99
2023-01-21T12:20:28.096Z,4.99
2023-01-21T12:21:32.262Z,4.98
2023-01-21T12:22:36.526Z,4.99
2023-01-21T12:23:40.676Z,4.99
2023-01-21T12:24:44.882Z,5.00
2023-01-21T12:25:49.036Z,5.01
2023-01-21T12:26:53.379Z,5.02
2023-01-21T12:27:57.521Z,5.03
2023-01-21T12:29:01.756Z,5.03
2023-01-21T12:30:05.955Z,5.03
2023-01-21T12:31:10.319Z,5.03
2023-01-21T12:32:14.371Z,5.04
2023-01-21T12:33:18.573Z,5.04
2023-01-21T12:34:22.655Z,5.03
2023-01-21T12:35:26.909Z,5.02
2023-01-21T12:36:31.235Z,5.01
2023-01-21T12:37:35.316Z,5.01
2023-01-21T12:38:39.512Z,5.00
2023-01-21T12:39:43.839Z,4.99
2023-01-21T12:40:48.060Z,5.00
2023-01-21T12:41:52.340Z,4.99
2023-01-21T12:42:56.569Z,4.98
2023-01-21T12:44:00.755Z,4.96
2023-01-21T12:45:04.978Z,4.95
2023-01-21T12:46:09.249Z,4.95
2023-01-21T12:47:13.365Z,4.94
2023-01-21T12:48:17.549Z,4.92
2023-01-21T12:49:21.845Z,4.91
2023-01-21T12:50:26.041Z,4.91
2023-01-21T12:51:30.256Z,4.93
2023-01-21T12:52:34.452Z,4.93
2023-01-21T12:53:38.556Z,4.95
2023-01-21T12:54:42.773Z,4.94
2023-01-21T12:55:46.979Z,4.94
2023-01-21T12:56:51.143Z,4.94
2023-01-21T12:57:55.351Z,4.92
2023-01-21T12:58:59.546Z,4.91
2023-01-21T13:00:03.707Z,4.91
2023-01-21T13:01:08.093Z,4.92
2023-01-21T13:02:12.260Z,4.91
2023-01-21T13:03:16.358Z,4.89
2023-01-21T13:04:20.497Z,4.89
2023-01-21T13:05:24.741Z,4.86
2023-01-21T13:06:42.535Z,4.86
2023-01-21T13:07:33.192Z,4.85
2023-01-21T13:08:51.383Z,4.86
2023-01-21T13:09:54.355Z,4.86
2023-01-21T13:10:58.340Z,4.86
2023-01-21T13:12:02.628Z,4.86
2023-01-21T13:13:06.748Z,4.86
2023-01-21T13:14:10.945Z,4.87
2023-01-21T13:15:15.124Z,4.85
2023-01-21T13:16:19.386Z,4.84
2023-01-21T13:17:23.513Z,4.84
2023-01-21T13:18:27.700Z,4.84
2023-01-21T13:19:31.878Z,4.84
2023-01-21T13:20:37.055Z,4.85
2023-01-21T13:21:40.927Z,4.85
2023-01-21T13:22:45.150Z,4.85
2023-01-21T13:23:50.192Z,4.86
2023-01-21T13:24:54.021Z,4.87
2023-01-21T13:25:58.227Z,4.85
2023-01-21T13:27:02.422Z,4.83
2023-01-21T13:28:06.716Z,4.80
2023-01-21T13:29:10.922Z,4.78
2023-01-21T13:30:15.405Z,4.77
2023-01-21T13:31:19.526Z,4.77
2023-01-21T13:32:23.608Z,4.77
2023-01-21T13:33:27.825Z,4.77
2023-01-21T13:34:31.985Z,4.77
2023-01-21T13:35:36.240Z,4.76
2023-01-21T13:36:40.402Z,4.74
2023-01-21T13:37:44.681Z,4.74
2023-01-21T13:38:48.691Z,4.75
2023-01-21T13:39:53.019Z,4.75
2023-01-21T13:40:57.155Z,4.76
2023-01-21T13:42:01.418Z,4.76
2023-01-21T13:43:05.581Z,4.75
2023-01-21T13:44:09.811Z,4.73
2023-01-21T13:45:14.156Z,4.72
2023-01-21T13:46:18.374Z,4.72
2023-01-21T13:47:22.542Z,4.72
2023-01-21T13:48:40.677Z,4.73
2023-01-21T13:49:43.685Z,4.72
2023-01-21T13:50:47.855Z,4.72
2023-01-21T13:51:52.080Z,4.73
2023-01-21T13:52:56.234Z,4.72
2023-01-21T13:54:00.389Z,4.72
2023-01-21T13:55:04.587Z,4.73
2023-01-21T13:56:08.859Z,4.73
2023-01-21T13:57:13.005Z,4.73
2023-01-21T13:58:17.157Z,4.74
2023-01-21T13:59:21.379Z,4.75
2023-01-21T14:00:25.674Z,4.75
2023-01-21T14:01:29.835Z,4.75
2023-01-21T14:02:34.016Z,4.76
2023-01-21T14:03:38.309Z,4.76
2023-01-21T14:04:42.503Z,4.77
2023-01-21T14:05:46.700Z,4.76
2023-01-21T14:06:56.988Z,4.76
2023-01-21T14:07:59.778Z,4.75
2023-01-21T14:09:03.909Z,4.76
2023-01-21T14:10:08.162Z,4.76
2023-01-21T14:11:12.406Z,4.76
2023-01-21T14:12:16.543Z,4.75
2023-01-21T14:13:20.784Z,4.74
2023-01-21T14:14:24.962Z,4.71
2023-01-21T14:15:29.134Z,4.70
2023-01-21T14:16:33.349Z,4.67
2023-01-21T14:17:37.473Z,4.66
2023-01-21T14:18:41.763Z,4.65
2023-01-21T14:19:45.969Z,4.63